Time;durP1;ratioP1;P1;durP2;ratioP2;P2;SDS_P1;SDS_P2;PMS_P1;PMS_P2;Temp;Humidity;BMP_temperature;BMP_pressure;BME280_temperature;BME280_humidity;BME280_pressure;Samples;Min_cycle;Max_cycle;Signal;HPM_P1;HPM_P2
2023/05/31 00:02:13;;;;;;;4.18;2.47;;;12.90;1.00;;;;;;5046300;28;20178;-80
2023/05/31 00:04:38;;;;;;;5.65;3.25;;;12.80;1.00;;;;;;5045864;28;20183;-81
2023/05/31 00:07:05;;;;;;;6.55;2.92;;;12.70;1.00;;;;;;5045869;28;20193;-80
2023/05/31 00:09:31;;;;;;;5.82;2.67;;;12.80;1.00;;;;;;5045031;28;20296;-81
2023/05/31 00:11:57;;;;;;;7.15;3.17;;;12.90;1.00;;;;;;5045847;28;20261;-82
2023/05/31 00:14:22;;;;;;;9.63;3.72;;;13.00;1.00;;;;;;5044642;28;20204;-80
2023/05/31 00:16:48;;;;;;;4.88;3.08;;;12.80;1.00;;;;;;5045999;28;20218;-81
2023/05/31 00:19:14;;;;;;;6.75;3.38;;;12.70;1.00;;;;;;5045377;28;20209;-81
2023/05/31 00:21:39;;;;;;;5.32;3.33;;;12.70;1.00;;;;;;5045087;28;20181;-80
2023/05/31 00:24:05;;;;;;;5.05;3.63;;;12.70;1.00;;;;;;5045528;28;20572;-81
2023/05/31 00:26:31;;;;;;;5.30;3.13;;;12.60;1.00;;;;;;5045781;28;20178;-80
2023/05/31 00:28:57;;;;;;;4.95;3.33;;;12.50;1.00;;;;;;5044164;28;20190;-81
2023/05/31 00:31:23;;;;;;;6.03;3.20;;;12.40;1.00;;;;;;5045156;28;20625;-81
2023/05/31 00:33:49;;;;;;;7.40;2.95;;;12.50;1.00;;;;;;5045386;28;20179;-81
2023/05/31 00:36:15;;;;;;;7.22;3.42;;;12.40;1.00;;;;;;5045615;28;20191;-81
2023/05/31 00:38:40;;;;;;;7.07;3.47;;;12.40;1.00;;;;;;5045341;28;20189;-80
2023/05/31 00:41:09;;;;;;;7.10;3.72;;;12.50;1.00;;;;;;5046156;28;20266;-81
2023/05/31 00:43:35;;;;;;;8.57;3.67;;;12.30;1.00;;;;;;5043567;28;20533;-81
2023/05/31 00:46:02;;;;;;;7.63;3.63;;;12.30;1.00;;;;;;5044358;28;20671;-80
2023/05/31 00:48:29;;;;;;;4.90;3.05;;;12.20;1.00;;;;;;5044616;28;20178;-80
2023/05/31 00:50:55;;;;;;;5.47;3.58;;;12.10;21.30;;;;;;5042540;28;20692;-80
2023/05/31 00:53:22;;;;;;;7.03;3.25;;;12.10;49.00;;;;;;5045523;28;20197;-80
2023/05/31 00:55:48;;;;;;;6.38;3.58;;;12.10;56.60;;;;;;5045944;28;20182;-81
2023/05/31 00:58:15;;;;;;;7.85;4.30;;;12.10;45.00;;;;;;5045874;28;20221;-80
2023/05/31 01:00:41;;;;;;;8.38;4.20;;;12.10;41.60;;;;;;5043221;28;20718;-80
2023/05/31 01:03:09;;;;;;;5.47;3.60;;;12.10;66.00;;;;;;5044241;28;20223;-80
2023/05/31 01:05:35;;;;;;;6.00;3.75;;;12.00;99.90;;;;;;5045616;28;20170;-80
2023/05/31 01:08:02;;;;;;;6.65;4.03;;;11.90;99.90;;;;;;5044940;28;20415;-81
2023/05/31 01:10:28;;;;;;;7.93;4.13;;;12.00;99.90;;;;;;5045740;28;20208;-80
2023/05/31 01:13:35;;;;;;;8.98;4.18;;;12.00;99.90;;;;;;5044070;28;20190;-80
2023/05/31 01:16:10;;;;;;;8.70;4.50;;;11.90;99.90;;;;;;5045458;28;20182;-80
2023/05/31 01:18:44;;;;;;;6.55;3.80;;;11.80;99.90;;;;;;5045503;28;20192;-82
2023/05/31 01:21:11;;;;;;;8.15;4.45;;;11.70;99.90;;;;;;5045273;28;20214;-79
2023/05/31 01:24:07;;;;;;;6.15;4.18;;;11.80;99.90;;;;;;5045471;28;20649;-80
2023/05/31 01:26:49;;;;;;;7.43;3.88;;;11.80;99.90;;;;;;5044764;28;20917;-81
2023/05/31 01:29:21;;;;;;;5.50;3.25;;;11.80;99.90;;;;;;5044894;28;20281;-81
2023/05/31 01:31:48;;;;;;;6.15;3.88;;;11.80;99.90;;;;;;5044177;28;20523;-81
2023/05/31 01:34:14;;;;;;;6.30;3.95;;;11.80;99.90;;;;;;5043860;28;20217;-82
2023/05/31 01:36:39;;;;;;;7.63;4.40;;;11.70;99.90;;;;;;5045343;28;20607;-80
2023/05/31 01:39:06;;;;;;;6.22;4.25;;;11.50;99.90;;;;;;5044091;28;20191;-82
2023/05/31 01:41:39;;;;;;;6.50;4.28;;;11.60;99.90;;;;;;5051993;28;20709;-81
2023/05/31 01:44:06;;;;;;;7.85;4.45;;;11.60;99.90;;;;;;5045261;28;20189;-81
2023/05/31 01:46:32;;;;;;;5.38;3.80;;;11.40;99.90;;;;;;5045346;28;20182;-80
2023/05/31 01:48:59;;;;;;;8.60;4.18;;;11.20;99.90;;;;;;5044023;28;20562;-81
2023/05/31 01:51:26;;;;;;;9.32;4.70;;;11.20;99.90;;;;;;5044044;28;20202;-80
2023/05/31 01:53:52;;;;;;;9.45;4.55;;;11.30;99.90;;;;;;5044339;28;20205;-80
2023/05/31 01:56:20;;;;;;;10.82;4.55;;;11.30;99.90;;;;;;5043937;28;20572;-80
2023/05/31 01:58:48;;;;;;;7.50;4.63;;;11.30;99.90;;;;;;5045453;28;20189;-80
2023/05/31 02:01:16;;;;;;;10.20;4.50;;;11.40;99.90;;;;;;5043669;28;20271;-81
2023/05/31 02:03:42;;;;;;;5.95;3.95;;;11.50;99.90;;;;;;5047304;28;20213;-80
2023/05/31 02:06:08;;;;;;;11.20;5.07;;;11.50;99.90;;;;;;5047894;28;20656;-81
2023/05/31 02:08:33;;;;;;;7.60;4.90;;;11.30;99.90;;;;;;5046985;28;20538;-81
2023/05/31 02:10:59;;;;;;;7.63;4.23;;;11.20;99.90;;;;;;5047558;28;20210;-80
2023/05/31 02:13:27;;;;;;;5.90;4.30;;;10.90;99.90;;;;;;5048743;28;20190;-80
2023/05/31 02:15:54;;;;;;;8.30;4.50;;;10.90;99.90;;;;;;5048820;28;20617;-80
2023/05/31 02:18:21;;;;;;;6.57;4.47;;;10.90;99.90;;;;;;5048365;28;20190;-81
2023/05/31 02:20:47;;;;;;;11.37;4.67;;;10.80;99.90;;;;;;5047444;28;20817;-81
2023/05/31 02:23:12;;;;;;;6.87;4.00;;;10.70;99.90;;;;;;5046905;28;20201;-81
2023/05/31 02:25:38;;;;;;;5.43;4.57;;;10.60;1.00;;;;;;5047605;28;20190;-80
2023/05/31 02:28:04;;;;;;;5.97;3.87;;;10.40;99.90;;;;;;5047326;28;20585;-81
2023/05/31 02:30:31;;;;;;;6.90;4.53;;;10.30;1.00;;;;;;5047362;28;20722;-80
2023/05/31 02:32:59;;;;;;;6.03;4.83;;;10.20;1.00;;;;;;5047914;28;20198;-80
2023/05/31 02:35:25;;;;;;;7.10;4.43;;;10.00;99.90;;;;;;5048727;28;20178;-81
2023/05/31 02:37:50;;;;;;;5.60;4.33;;;9.90;99.90;;;;;;5049010;28;20259;-80
2023/05/31 02:40:16;;;;;;;7.03;4.70;;;9.80;1.00;;;;;;5048262;28;20221;-81
2023/05/31 02:42:42;;;;;;;8.07;4.33;;;9.80;1.00;;;;;;5048543;28;20200;-80
2023/05/31 02:45:09;;;;;;;5.93;4.67;;;9.70;1.00;;;;;;5047284;28;20221;-80
2023/05/31 02:47:39;;;;;;;7.90;4.93;;;9.70;1.00;;;;;;5048174;28;20178;-80
2023/05/31 02:50:07;;;;;;;6.43;4.63;;;9.60;1.00;;;;;;5047854;28;20308;-80
2023/05/31 02:52:33;;;;;;;7.77;4.90;;;9.40;1.00;;;;;;5047890;28;20186;-81
2023/05/31 02:54:59;;;;;;;6.63;4.47;;;9.20;1.00;;;;;;5046770;28;20240;-80
2023/05/31 02:57:25;;;;;;;7.13;4.70;;;9.10;1.00;;;;;;5046700;28;20206;-80
2023/05/31 02:59:55;;;;;;;5.43;4.10;;;9.00;1.00;;;;;;5048249;28;20214;-80
2023/05/31 03:02:20;;;;;;;5.90;4.40;;;8.90;1.00;;;;;;5046699;28;20648;-80
2023/05/31 03:04:46;;;;;;;7.40;3.70;;;8.80;1.00;;;;;;5046269;28;20232;-80
2023/05/31 03:07:12;;;;;;;5.53;4.17;;;8.70;1.00;;;;;;5046480;28;20238;-81
2023/05/31 03:09:37;;;;;;;5.90;4.00;;;8.60;1.00;;;;;;5047556;28;20217;-81
2023/05/31 03:12:03;;;;;;;6.00;4.13;;;8.50;11.60;;;;;;5046573;28;20281;-81
2023/05/31 03:14:29;;;;;;;4.70;3.80;;;8.40;98.40;;;;;;5045911;28;20277;-80
2023/05/31 03:16:55;;;;;;;6.53;4.30;;;8.40;99.90;;;;;;5046425;28;20656;-80
2023/05/31 03:19:20;;;;;;;7.10;4.70;;;8.30;99.90;;;;;;5045263;28;20737;-81
2023/05/31 03:21:46;;;;;;;6.20;3.83;;;8.30;99.90;;;;;;5046314;28;20174;-81
2023/05/31 03:24:12;;;;;;;7.47;4.30;;;8.40;99.90;;;;;;5046195;28;20235;-81
2023/05/31 03:26:37;;;;;;;7.57;3.90;;;8.40;99.90;;;;;;5047498;28;20186;-80
2023/05/31 03:29:03;;;;;;;6.30;4.40;;;8.40;98.40;;;;;;5046284;28;20185;-80
2023/05/31 03:31:29;;;;;;;7.30;3.93;;;8.30;2.00;;;;;;5045947;28;20601;-80
2023/05/31 03:33:55;;;;;;;6.00;4.13;;;8.30;99.90;;;;;;5047249;28;20178;-80
2023/05/31 03:36:21;;;;;;;5.93;3.93;;;8.30;99.90;;;;;;5047255;28;20182;-80
2023/05/31 03:38:46;;;;;;;6.73;4.07;;;8.40;99.90;;;;;;5047409;28;20225;-80
2023/05/31 03:41:12;;;;;;;6.90;4.00;;;8.40;99.90;;;;;;5046943;28;20213;-80
2023/05/31 03:43:37;;;;;;;6.60;3.90;;;8.50;99.90;;;;;;5047350;28;20178;-81
2023/05/31 03:46:03;;;;;;;5.70;3.57;;;8.70;99.90;;;;;;5046128;28;20194;-80
2023/05/31 03:48:28;;;;;;;5.20;3.63;;;8.70;1.00;;;;;;5045969;28;20171;-81
2023/05/31 03:50:54;;;;;;;4.23;3.70;;;8.60;1.00;;;;;;5047143;28;20696;-80
2023/05/31 03:53:20;;;;;;;7.07;3.47;;;8.80;1.00;;;;;;5045642;28;20194;-80
2023/05/31 03:55:45;;;;;;;4.50;3.70;;;8.90;1.00;;;;;;5045869;28;20193;-81
2023/05/31 03:58:11;;;;;;;4.97;3.57;;;9.00;1.00;;;;;;5047009;28;20225;-81
2023/05/31 04:00:36;;;;;;;6.43;3.67;;;9.20;1.00;;;;;;5045592;28;20201;-81
2023/05/31 04:03:02;;;;;;;5.13;3.90;;;9.30;1.00;;;;;;5046773;28;20319;-80
2023/05/31 04:05:28;;;;;;;5.60;3.70;;;9.30;99.90;;;;;;5046807;28;20170;-80
2023/05/31 04:07:53;;;;;;;5.23;3.20;;;9.20;99.90;;;;;;5046695;28;20671;-81
2023/05/31 04:10:19;;;;;;;5.83;3.63;;;9.20;1.00;;;;;;5046760;28;20197;-81
2023/05/31 04:12:45;;;;;;;4.23;3.33;;;9.30;99.90;;;;;;5047020;28;20196;-80
2023/05/31 04:15:10;;;;;;;4.63;3.50;;;9.30;99.90;;;;;;5046353;28;20229;-81
2023/05/31 04:17:36;;;;;;;4.80;3.67;;;9.20;99.90;;;;;;5046511;28;20645;-81
2023/05/31 04:20:07;;;;;;;6.37;4.13;;;9.20;99.90;;;;;;5045034;28;20761;-81
2023/05/31 04:22:33;;;;;;;6.37;3.70;;;9.20;99.90;;;;;;5046007;28;20170;-80
2023/05/31 04:24:58;;;;;;;5.13;3.50;;;9.20;99.90;;;;;;5045473;28;20571;-80
2023/05/31 04:27:25;;;;;;;5.93;3.67;;;9.30;1.00;;;;;;5046322;28;20220;-81
2023/05/31 04:29:51;;;;;;;5.50;3.90;;;9.40;1.00;;;;;;5044856;28;20297;-80
2023/05/31 04:32:17;;;;;;;3.90;3.30;;;9.40;99.90;;;;;;5044996;28;20657;-81
2023/05/31 04:34:42;;;;;;;5.33;3.67;;;9.60;99.90;;;;;;5046260;28;20732;-80
2023/05/31 04:37:08;;;;;;;6.17;3.37;;;9.60;99.90;;;;;;5046097;28;20261;-80
2023/05/31 04:39:34;;;;;;;6.30;3.63;;;9.80;99.90;;;;;;5045588;28;20206;-81
2023/05/31 04:42:00;;;;;;;3.67;3.10;;;10.10;99.90;;;;;;5046399;28;21086;-81
2023/05/31 04:44:26;;;;;;;4.70;3.10;;;10.50;99.90;;;;;;5045742;28;20206;-79
2023/05/31 04:46:51;;;;;;;4.80;3.10;;;10.80;99.90;;;;;;5046123;28;20586;-80
2023/05/31 04:49:18;;;;;;;5.63;3.20;;;10.90;99.90;;;;;;5044305;28;20214;-81
2023/05/31 04:51:44;;;;;;;7.57;3.30;;;11.10;99.90;;;;;;5046072;28;20167;-81
2023/05/31 04:54:10;;;;;;;6.35;3.20;;;11.30;99.90;;;;;;5045909;28;20174;-80
2023/05/31 04:56:36;;;;;;;3.30;2.63;;;11.50;99.90;;;;;;5045124;28;20189;-80
2023/05/31 04:59:01;;;;;;;4.18;2.55;;;13.20;32.80;;;;;;5045864;28;20239;-81
2023/05/31 05:01:28;;;;;;;3.72;2.20;;;14.20;1.00;;;;;;5043879;28;20233;-81
2023/05/31 05:03:53;;;;;;;2.75;2.40;;;16.00;1.00;;;;;;5044385;28;20210;-81
2023/05/31 05:06:19;;;;;;;3.63;2.30;;;18.30;1.00;;;;;;5045550;28;20209;-80
2023/05/31 05:08:48;;;;;;;2.72;2.05;;;19.10;1.00;;;;;;5044674;28;20801;-81
2023/05/31 05:11:13;;;;;;;3.20;2.25;;;19.80;1.00;;;;;;5045653;28;20253;-81
2023/05/31 05:13:41;;;;;;;3.75;2.08;;;20.70;1.00;;;;;;5045460;28;20206;-80
2023/05/31 05:16:06;;;;;;;4.25;2.22;;;21.30;1.00;;;;;;5044270;28;20595;-81
2023/05/31 05:18:32;;;;;;;4.72;2.67;;;21.90;1.00;;;;;;5045173;28;20217;-81
2023/05/31 05:20:58;;;;;;;3.42;2.13;;;22.30;1.00;;;;;;5045654;28;20213;-81
2023/05/31 05:23:24;;;;;;;4.00;2.20;;;22.40;1.00;;;;;;5044061;28;20177;-81
2023/05/31 05:25:50;;;;;;;3.92;2.45;;;22.70;1.00;;;;;;5045506;28;20193;-81
2023/05/31 05:28:16;;;;;;;3.72;1.92;;;23.40;1.00;;;;;;5045528;28;20181;-80
2023/05/31 05:30:41;;;;;;;6.03;2.30;;;23.50;1.00;;;;;;5043592;28;20206;-80
2023/05/31 05:33:07;;;;;;;3.53;2.47;;;23.60;1.00;;;;;;5043702;28;20209;-81
2023/05/31 05:35:33;;;;;;;3.67;2.15;;;24.10;1.00;;;;;;5045593;28;20243;-82
2023/05/31 05:37:59;;;;;;;3.95;2.25;;;24.80;1.00;;;;;;5049791;28;20186;-81
2023/05/31 05:40:25;;;;;;;3.80;2.58;;;25.40;1.00;;;;;;5048549;28;20200;-82
2023/05/31 05:42:52;;;;;;;3.70;2.50;;;25.00;1.00;;;;;;5049422;28;20265;-81
2023/05/31 05:45:18;;;;;;;2.63;2.05;;;25.40;1.00;;;;;;5047569;28;20186;-82
2023/05/31 05:47:45;;;;;;;3.60;2.45;;;25.50;1.00;;;;;;5048229;28;20189;-80
2023/05/31 05:50:11;;;;;;;3.72;2.10;;;26.00;1.00;;;;;;5048457;28;20201;-81
2023/05/31 05:52:37;;;;;;;3.72;2.10;;;25.80;1.00;;;;;;5048714;28;20178;-81
2023/05/31 05:55:03;;;;;;;3.63;2.40;;;25.50;1.00;;;;;;5048636;28;20276;-80
2023/05/31 05:57:29;;;;;;;4.18;2.10;;;25.60;1.00;;;;;;5049352;28;20179;-80
2023/05/31 05:59:56;;;;;;;3.28;2.15;;;25.90;1.00;;;;;;5047497;28;20275;-80
2023/05/31 06:02:22;;;;;;;3.10;2.13;;;26.40;1.00;;;;;;5047003;28;20217;-81
2023/05/31 06:04:48;;;;;;;4.72;2.30;;;27.10;1.00;;;;;;5048598;28;20214;-80
2023/05/31 06:07:14;;;;;;;5.30;2.25;;;27.70;1.00;;;;;;5054354;28;20209;-81
2023/05/31 06:09:39;;;;;;;3.95;1.75;;;28.00;1.00;;;;;;5048919;28;20210;-80
2023/05/31 06:12:06;;;;;;;4.28;2.00;;;28.20;1.00;;;;;;5048997;28;20186;-81
2023/05/31 06:14:32;;;;;;;3.58;2.50;;;28.00;1.00;;;;;;5047568;28;20201;-81
2023/05/31 06:16:57;;;;;;;3.53;2.28;;;27.70;1.00;;;;;;5047582;28;20216;-80
2023/05/31 06:19:23;;;;;;;3.75;2.00;;;28.50;1.00;;;;;;5047202;28;20202;-81
2023/05/31 06:21:49;;;;;;;3.33;2.10;;;28.90;1.00;;;;;;5045831;28;20190;-81
2023/05/31 06:24:14;;;;;;;3.10;2.20;;;29.40;1.00;;;;;;5043946;28;20174;-80
2023/05/31 06:26:40;;;;;;;3.25;2.45;;;29.70;1.00;;;;;;5045740;28;20228;-81
2023/05/31 06:29:05;;;;;;;4.68;2.28;;;29.50;1.00;;;;;;5045017;28;20562;-81
2023/05/31 06:31:31;;;;;;;4.47;2.45;;;30.00;1.00;;;;;;5044838;28;20194;-81
2023/05/31 06:33:57;;;;;;;4.03;2.13;;;30.70;1.00;;;;;;5045227;28;20662;-81
2023/05/31 06:36:22;;;;;;;4.20;2.13;;;31.10;1.00;;;;;;5044390;28;20229;-81
2023/05/31 06:38:48;;;;;;;3.53;2.30;;;31.50;1.00;;;;;;5045313;28;20220;-81
2023/05/31 06:41:13;;;;;;;3.55;2.10;;;31.50;1.00;;;;;;5045239;28;20227;-81
2023/05/31 06:43:39;;;;;;;3.65;2.20;;;31.80;1.00;;;;;;5043670;28;20178;-81
2023/05/31 06:46:07;;;;;;;4.03;2.20;;;31.60;1.00;;;;;;5045255;28;20182;-81
2023/05/31 06:48:33;;;;;;;4.70;2.03;;;31.90;1.00;;;;;;5043669;28;20183;-81
2023/05/31 06:50:58;;;;;;;3.10;2.30;;;30.90;1.00;;;;;;5045193;28;20771;-81
2023/05/31 06:53:24;;;;;;;2.60;2.15;;;31.60;1.00;;;;;;5045116;28;20228;-81
2023/05/31 06:55:49;;;;;;;2.92;2.20;;;31.80;1.00;;;;;;5044899;28;20186;-80
2023/05/31 06:58:16;;;;;;;3.25;1.90;;;32.00;1.00;;;;;;5043672;28;20243;-81
2023/05/31 07:00:42;;;;;;;2.55;1.80;;;32.70;1.00;;;;;;5043247;28;20711;-81
2023/05/31 07:03:08;;;;;;;2.63;1.98;;;33.50;1.00;;;;;;5045254;28;20279;-81
2023/05/31 07:05:34;;;;;;;2.97;1.65;;;33.00;1.00;;;;;;5044631;28;20185;-81
2023/05/31 07:08:00;;;;;;;4.50;1.80;;;33.30;1.00;;;;;;5045148;28;20235;-81
2023/05/31 07:10:27;;;;;;;3.92;1.80;;;33.10;1.00;;;;;;5043269;28;20201;-80
2023/05/31 07:12:53;;;;;;;3.88;1.80;;;32.50;1.00;;;;;;5044747;28;20182;-81
2023/05/31 07:15:19;;;;;;;4.65;1.80;;;32.90;1.00;;;;;;5043296;28;20185;-81
2023/05/31 07:17:45;;;;;;;4.97;2.20;;;32.10;1.00;;;;;;5043331;28;20652;-81
2023/05/31 07:20:11;;;;;;;3.72;1.77;;;33.00;1.00;;;;;;5043988;28;20225;-81
2023/05/31 07:22:37;;;;;;;4.05;2.00;;;30.80;1.00;;;;;;5044734;28;20664;-81
2023/05/31 07:25:04;;;;;;;2.70;2.00;;;29.30;1.00;;;;;;5044422;28;20194;-81
2023/05/31 07:27:30;;;;;;;3.17;2.13;;;27.10;1.00;;;;;;5044536;28;20682;-81
2023/05/31 07:29:56;;;;;;;3.08;2.22;;;24.40;1.00;;;;;;5044372;28;20234;-80
2023/05/31 07:32:22;;;;;;;4.95;2.00;;;23.60;1.00;;;;;;5044628;28;20244;-80
2023/05/31 07:34:47;;;;;;;3.70;1.92;;;23.10;1.00;;;;;;5046022;28;20667;-80
2023/05/31 07:37:13;;;;;;;5.22;1.95;;;22.80;1.00;;;;;;5047589;28;20225;-80
2023/05/31 07:39:39;;;;;;;2.72;1.83;;;21.90;1.00;;;;;;5045987;28;20219;-80
2023/05/31 07:42:05;;;;;;;3.15;1.92;;;21.70;1.00;;;;;;5047026;28;20190;-80
2023/05/31 07:44:30;;;;;;;4.05;1.90;;;21.30;1.00;;;;;;5045051;28;20186;-81
2023/05/31 07:46:56;;;;;;;4.10;1.88;;;20.70;1.00;;;;;;5047163;28;20182;-80
2023/05/31 07:49:21;;;;;;;3.28;1.58;;;20.70;1.00;;;;;;5047243;28;20182;-81
2023/05/31 07:51:47;;;;;;;3.58;1.50;;;20.70;1.00;;;;;;5045677;28;20556;-80
2023/05/31 07:54:13;;;;;;;4.20;1.77;;;20.70;1.00;;;;;;5045365;28;20575;-81
2023/05/31 07:56:38;;;;;;;2.65;1.70;;;20.60;1.00;;;;;;5042715;28;20660;-81
2023/05/31 07:59:04;;;;;;;4.00;1.70;;;20.60;1.00;;;;;;5040874;28;20247;-81
2023/05/31 08:01:30;;;;;;;3.47;1.63;;;20.50;1.00;;;;;;5041894;28;20305;-81
2023/05/31 08:04:06;;;;;;;5.30;1.92;;;20.80;1.00;;;;;;5043920;28;20217;-81
2023/05/31 08:06:32;;;;;;;4.10;1.80;;;20.80;1.00;;;;;;5043284;28;20665;-80
2023/05/31 08:08:58;;;;;;;3.83;1.80;;;20.30;1.00;;;;;;5043575;28;20197;-81
2023/05/31 08:11:25;;;;;;;3.67;1.55;;;20.20;1.00;;;;;;5042470;28;20206;-81
2023/05/31 08:13:51;;;;;;;3.97;1.90;;;20.20;1.00;;;;;;5043618;28;20186;-82
2023/05/31 08:16:17;;;;;;;2.42;1.70;;;21.10;1.00;;;;;;5043586;28;20682;-81
2023/05/31 08:18:43;;;;;;;5.32;2.35;;;20.40;1.00;;;;;;5042409;28;20229;-81
2023/05/31 08:21:09;;;;;;;3.22;1.85;;;20.20;1.00;;;;;;5043183;28;20252;-81
2023/05/31 08:23:34;;;;;;;2.65;1.50;;;20.30;1.00;;;;;;5043895;28;20204;-81
2023/05/31 08:26:00;;;;;;;5.32;2.33;;;20.20;1.00;;;;;;5043317;28;20193;-81
2023/05/31 08:28:26;;;;;;;4.53;2.00;;;20.50;1.00;;;;;;5043493;28;20176;-81
2023/05/31 08:30:52;;;;;;;4.05;2.08;;;20.40;1.00;;;;;;5043258;28;20206;-81
2023/05/31 08:33:18;;;;;;;4.88;1.70;;;20.40;1.00;;;;;;5043576;28;20709;-81
2023/05/31 08:35:43;;;;;;;2.92;1.65;;;21.10;1.00;;;;;;5043210;28;20662;-81
2023/05/31 08:38:09;;;;;;;4.70;1.63;;;20.40;1.00;;;;;;5041968;28;20186;-81
2023/05/31 08:40:35;;;;;;;3.20;1.48;;;20.40;1.00;;;;;;5042279;28;20206;-81
2023/05/31 08:43:07;;;;;;;9.13;1.70;;;20.60;1.00;;;;;;5041725;28;20534;-81
2023/05/31 08:45:35;;;;;;;3.80;1.70;;;20.40;1.00;;;;;;5041324;28;20214;-81
2023/05/31 08:48:10;;;;;;;2.63;1.70;;;20.60;1.00;;;;;;5041736;28;20465;-81
2023/05/31 08:50:36;;;;;;;2.60;1.52;;;20.60;1.00;;;;;;5042700;28;20598;-81
2023/05/31 08:53:02;;;;;;;3.58;1.40;;;20.60;1.00;;;;;;5042717;28;20190;-81
2023/05/31 08:55:30;;;;;;;3.40;1.70;;;20.90;1.00;;;;;;5042749;28;20251;-81
2023/05/31 08:57:58;;;;;;;3.58;1.85;;;20.80;1.00;;;;;;5043211;28;20229;-81
2023/05/31 09:00:24;;;;;;;2.72;1.45;;;20.70;1.00;;;;;;5041181;28;20221;-82
2023/05/31 09:02:51;;;;;;;5.32;1.70;;;20.80;1.00;;;;;;5041543;28;20178;-81
2023/05/31 09:05:17;;;;;;;2.65;1.65;;;20.50;1.00;;;;;;5042892;28;20178;-82
2023/05/31 09:07:43;;;;;;;2.65;1.52;;;20.50;1.00;;;;;;5042510;28;20265;-81
2023/05/31 09:10:09;;;;;;;3.88;1.90;;;20.60;1.00;;;;;;5042564;28;20289;-81
2023/05/31 09:12:35;;;;;;;3.00;1.65;;;20.50;1.00;;;;;;5042563;28;20179;-81
2023/05/31 09:15:02;;;;;;;3.55;1.77;;;20.60;1.00;;;;;;5042754;28;20178;-81
2023/05/31 09:17:30;;;;;;;3.50;1.80;;;20.70;1.00;;;;;;5042545;28;20269;-81
2023/05/31 09:19:56;;;;;;;5.70;1.70;;;20.70;1.00;;;;;;5043673;28;20252;-81
2023/05/31 09:22:23;;;;;;;4.90;2.15;;;20.90;1.00;;;;;;5045095;28;20301;-81
2023/05/31 09:24:56;;;;;;;4.60;1.70;;;20.80;1.00;;;;;;5045458;28;20276;-81
2023/05/31 09:27:22;;;;;;;4.97;1.95;;;20.80;1.00;;;;;;5044362;28;20184;-81
2023/05/31 09:29:54;;;;;;;3.03;1.75;;;20.90;1.00;;;;;;5044911;28;20209;-80
2023/05/31 09:32:20;;;;;;;4.78;1.83;;;20.90;1.00;;;;;;5043798;28;20188;-81
2023/05/31 09:34:46;;;;;;;3.85;1.75;;;21.00;1.00;;;;;;5044958;28;20189;-83
2023/05/31 09:37:23;;;;;;;4.15;1.95;;;21.30;1.00;;;;;;5045014;28;20178;-83
2023/05/31 09:39:58;;;;;;;3.40;1.40;;;21.00;1.00;;;;;;5043761;28;20209;-81
2023/05/31 09:42:28;;;;;;;4.75;1.50;;;21.20;1.00;;;;;;5044115;28;20981;-81
2023/05/31 09:44:54;;;;;;;3.15;1.52;;;21.30;1.00;;;;;;5043606;28;20209;-80
2023/05/31 09:47:25;;;;;;;3.83;1.55;;;21.30;1.00;;;;;;5044044;28;20659;-80
2023/05/31 09:49:55;;;;;;;4.20;1.73;;;21.50;1.00;;;;;;5045343;28;20198;-80
2023/05/31 09:52:30;;;;;;;2.30;1.35;;;21.50;1.00;;;;;;5045185;28;20189;-81
2023/05/31 09:54:57;;;;;;;4.03;1.60;;;21.60;1.00;;;;;;5043317;28;20748;-80
2023/05/31 09:57:30;;;;;;;2.65;1.63;;;21.60;1.00;;;;;;5045093;28;20197;-80
2023/05/31 09:59:58;;;;;;;3.13;1.50;;;21.50;1.00;;;;;;5043764;28;20213;-80
2023/05/31 10:02:25;;;;;;;2.63;1.50;;;21.40;1.00;;;;;;5039336;28;20233;-81
2023/05/31 10:04:51;;;;;;;4.22;1.67;;;21.30;1.00;;;;;;5040835;28;20174;-80
2023/05/31 10:07:18;;;;;;;4.60;1.58;;;21.40;1.00;;;;;;5041561;28;20190;-82
2023/05/31 10:09:43;;;;;;;2.53;1.40;;;21.20;1.00;;;;;;5040674;28;20260;-81
2023/05/31 10:12:10;;;;;;;3.92;1.80;;;21.30;1.00;;;;;;5042267;28;20629;-81
2023/05/31 10:14:39;;;;;;;4.00;1.42;;;21.00;1.00;;;;;;5040309;28;20178;-80
2023/05/31 10:17:05;;;;;;;4.57;1.90;;;21.10;1.00;;;;;;5040615;28;20198;-81
2023/05/31 10:19:40;;;;;;;3.65;1.50;;;21.10;1.00;;;;;;5041954;28;20300;-80
2023/05/31 10:22:07;;;;;;;3.22;1.60;;;21.20;1.00;;;;;;5041901;28;20192;-81
2023/05/31 10:24:45;;;;;;;3.97;1.70;;;21.30;1.00;;;;;;5044010;28;20235;-81
2023/05/31 10:27:22;;;;;;;2.08;1.27;;;21.30;1.00;;;;;;5044385;28;20641;-81
2023/05/31 10:29:56;;;;;;;3.97;1.63;;;21.50;1.00;;;;;;5044263;28;20206;-81
2023/05/31 10:32:29;;;;;;;3.55;1.50;;;21.50;1.00;;;;;;5045801;28;20244;-81
2023/05/31 10:34:55;;;;;;;3.25;1.58;;;21.30;1.00;;;;;;5045277;28;20700;-81
2023/05/31 10:37:21;;;;;;;3.70;1.90;;;21.40;1.00;;;;;;5044208;28;20560;-80
2023/05/31 10:39:58;;;;;;;2.97;1.20;;;21.30;1.00;;;;;;5043947;28;20293;-81
2023/05/31 10:42:53;;;;;;;3.90;2.13;;;21.60;1.00;;;;;;5045463;28;20178;-81
2023/05/31 10:45:24;;;;;;;3.40;1.60;;;22.00;1.00;;;;;;5042934;28;20186;-81
2023/05/31 10:48:14;;;;;;;2.20;1.30;;;22.20;1.00;;;;;;5045701;28;20274;-81
2023/05/31 10:50:57;;;;;;;2.83;1.40;;;22.10;1.00;;;;;;5043494;28;20750;-82
2023/05/31 10:53:34;;;;;;;3.50;1.40;;;22.20;1.00;;;;;;5043328;28;21563;-81
2023/05/31 10:56:04;;;;;;;2.45;1.45;;;22.40;1.00;;;;;;5044889;28;20185;-81
2023/05/31 10:58:39;;;;;;;2.78;1.40;;;22.50;1.00;;;;;;5044703;28;20174;-81
2023/05/31 11:01:06;;;;;;;2.67;1.33;;;22.70;1.00;;;;;;5044960;28;20726;-81
2023/05/31 11:03:36;;;;;;;6.07;1.35;;;22.80;1.00;;;;;;5042906;28;20193;-81
2023/05/31 11:06:06;;;;;;;2.92;1.67;;;22.80;1.00;;;;;;5043951;28;20751;-80
2023/05/31 11:08:32;;;;;;;3.75;1.60;;;22.90;1.00;;;;;;5044764;28;20174;-81
2023/05/31 11:11:32;;;;;;;2.72;1.70;;;22.80;1.00;;;;;;5043442;28;20317;-81
2023/05/31 11:14:03;;;;;;;2.33;1.20;;;23.00;1.00;;;;;;5043350;28;20631;-80
2023/05/31 11:16:33;;;;;;;10.13;2.00;;;23.00;1.00;;;;;;5044700;28;20182;-81
2023/05/31 11:19:14;;;;;;;2.58;1.33;;;23.00;1.00;;;;;;5044514;28;20202;-81
2023/05/31 11:21:53;;;;;;;3.60;1.45;;;22.70;1.00;;;;;;5044098;28;20210;-81
2023/05/31 11:24:36;;;;;;;2.85;1.52;;;22.70;1.00;;;;;;5044384;28;20182;-81
2023/05/31 11:27:02;;;;;;;3.63;1.40;;;22.80;1.00;;;;;;5044730;28;20204;-81
2023/05/31 11:29:46;;;;;;;2.67;1.40;;;22.80;1.00;;;;;;5042372;28;21189;-81
2023/05/31 11:32:13;;;;;;;3.05;1.85;;;22.80;1.00;;;;;;5043874;28;20190;-80
2023/05/31 11:35:00;;;;;;;2.10;1.20;;;22.80;1.00;;;;;;5042813;28;20182;-81
2023/05/31 11:37:35;;;;;;;2.80;1.35;;;22.90;1.00;;;;;;5042869;28;20182;-81
2023/05/31 11:40:10;;;;;;;2.90;1.27;;;23.00;1.00;;;;;;5046863;28;20240;-81
2023/05/31 11:42:41;;;;;;;2.67;1.30;;;22.90;1.00;;;;;;5045179;28;20754;-80
2023/05/31 11:45:09;;;;;;;1.92;1.42;;;22.80;1.00;;;;;;5046506;28;20213;-81
2023/05/31 11:47:56;;;;;;;2.38;1.20;;;22.90;1.00;;;;;;5046957;28;20181;-81
2023/05/31 11:50:23;;;;;;;1.55;1.20;;;22.80;1.00;;;;;;5046918;28;20210;-81
2023/05/31 11:52:49;;;;;;;5.20;1.60;;;22.90;1.00;;;;;;5047352;28;21107;-80
2023/05/31 11:55:18;;;;;;;4.28;1.38;;;22.70;1.00;;;;;;5045660;28;20178;-81
2023/05/31 11:57:45;;;;;;;4.05;1.63;;;22.90;1.00;;;;;;5045495;28;20735;-81
2023/05/31 12:00:14;;;;;;;4.07;1.40;;;22.70;1.00;;;;;;5045057;28;20206;-81
2023/05/31 12:02:41;;;;;;;2.15;1.20;;;22.70;1.00;;;;;;5046165;28;20644;-80
2023/05/31 12:05:12;;;;;;;1.83;1.20;;;22.70;1.00;;;;;;5046695;28;20182;-80
2023/05/31 12:07:37;;;;;;;7.63;1.73;;;23.00;1.00;;;;;;5045724;28;20714;-80
2023/05/31 12:10:06;;;;;;;2.72;1.30;;;23.00;1.00;;;;;;5046170;28;20221;-80
2023/05/31 12:12:32;;;;;;;2.55;1.30;;;22.80;1.00;;;;;;5045046;28;20182;-81
2023/05/31 12:15:01;;;;;;;2.75;1.33;;;23.00;1.00;;;;;;5046842;28;20240;-81
2023/05/31 12:17:30;;;;;;;3.03;1.23;;;23.20;1.00;;;;;;5046715;28;20179;-80
2023/05/31 12:19:55;;;;;;;2.50;1.20;;;23.30;1.00;;;;;;5046285;28;20214;-82
2023/05/31 12:22:21;;;;;;;3.20;1.50;;;23.20;1.00;;;;;;5046520;28;20662;-81
2023/05/31 12:24:51;;;;;;;2.95;1.27;;;23.50;1.00;;;;;;5045811;28;20623;-85
2023/05/31 12:27:19;;;;;;;3.58;1.40;;;23.50;1.00;;;;;;5045595;28;20205;-85
2023/05/31 12:29:44;;;;;;;2.22;1.67;;;23.40;1.00;;;;;;5041912;28;20209;-85
2023/05/31 12:32:10;;;;;;;2.72;1.27;;;23.50;1.00;;;;;;5045682;28;20178;-85
2023/05/31 12:34:37;;;;;;;2.83;1.15;;;23.60;1.00;;;;;;5046936;28;20193;-86
2023/05/31 12:37:08;;;;;;;2.35;1.40;;;24.00;1.00;;;;;;5045455;28;21414;-87
2023/05/31 12:39:34;;;;;;;1.95;1.38;;;23.70;1.00;;;;;;5046810;28;20264;-86
2023/05/31 12:42:02;;;;;;;1.85;1.42;;;23.60;1.00;;;;;;5051683;28;20182;-86
2023/05/31 12:44:30;;;;;;;2.42;1.45;;;23.60;1.00;;;;;;5054365;28;20198;-85
2023/05/31 12:47:04;;;;;;;2.95;1.40;;;23.50;1.00;;;;;;5046772;28;20560;-87
2023/05/31 12:49:32;;;;;;;2.53;1.00;;;23.40;1.00;;;;;;5047069;28;20197;-85
2023/05/31 12:52:04;;;;;;;3.05;1.40;;;23.70;1.00;;;;;;5045158;28;20237;-84
2023/05/31 12:54:32;;;;;;;6.63;1.50;;;23.60;1.00;;;;;;5047331;28;20254;-88
2023/05/31 12:57:00;;;;;;;4.45;1.42;;;23.40;1.00;;;;;;5048992;28;20640;-85
2023/05/31 12:59:28;;;;;;;3.00;1.40;;;23.40;1.00;;;;;;5047937;28;20188;-87